Persoonlijke zone
Imprimable
Challenges > Delhalle - Chimay, 16/04/2016, BEL - Jogging De La Principauté De Chimay
Rapportenlijst > Delhalle - 14,3 km - Resultaat
Zoek: Bladzijde: [1] 2
819 Inputs
 
Klachten worden niet meer geaccepteerd. Resultaten zijn definitief.
Categorie
PosNrNaamLeef.IOCLigaClubWerkelijkeTijdTkmGem.PlaatsNaamPtsGemeente
1.4881DIAZ RODRIGUEZ ALEXANDER37BEL50:4350:433:33 16.921sen1142
2.371PHILIPPE JEROME43BELURBANTRITEAM53:0153:013:43 16.191ve11101HOEILAART
3.925ROELS JONAS33BELLATWATERMOLEN SP53:5253:523:47 15.932sen1087HAMME
4.4818LABROCHE DAMIEN35FRAAS SOMMER54:0854:083:48 15.853sen1082
5.4196DENEFFE GUILLAUME33BELSMACTRAKKS/RCNAMUR54:3054:303:49 15.744sen1076NAMUR
6.4083MOUCHET STÉPHANE42BELACCOJACO55:4855:483:55 15.382ve11054LOMPRET
7.4810MOURMAUX LAURENT43BELUACESM56:1456:143:56 15.263ve11046
8.238VAN DEN ABEELE SEBASTIAN46BELACLOJOGGPLUS56:2256:223:57 15.224ve11044CARNIERES
9.4109BERNARD LAURENT42FRAESACA FOURMIES56:3656:363:58 15.165ve11040FOURMIES
10.4945LEVACQ CORENTIN35BELACCOCTA / LDLV56:4156:413:58 15.145sen1038DOURBES
11.4185LEBLANC RENAUD31BELJACO57:3057:304:02 14.926sen1025VILLERS LA TOUR
12.4883PASQUE CEDRIC37BELLES BOUFFIOLS57:5257:524:03 14.837sen1019
13.913BOUGHRAD MOHAMED36BELCSFKALENJI TEAM58:5658:564:08 14.568sen1002BRUXELLES
14.594BOSSANT JEAN-FRANCOIS41BELFER59:1559:154:09 14.486ve1997VELLEREILLE-LE-SEC
15.4035RENARD YVES50BELCHIMAY TRAIL AV59:1359:214:10 14.461ve2997PESCHES-COUVIN
16.4901BAU GEOFFROY38FRAGRAC HARCY MOUD59:2759:314:10 14.429sen993
17.4806CAVYN JEAN-PHILIPPE48BELVERTIGO59:3859:394:11 14.387ve1990
18.4065HAUTIER GUILLAUME38FRA59:3959:414:11 14.3810sen989BITCHE
19.175DENIS PATRICK50BELARCH59:4259:424:11 14.372ve2988BERTRIX
20.524CHARLIER ALAIN46BELSMAC59:5059:504:11 14.348ve1986BOUGE
21.825PACQUET DOMINIQUE51BELACLO59:5659:564:12 14.323ve2984MERBES-SAINTE-MARIE
22.4998RUTTEN TOM21BEL59:5259:584:12 14.3111sen985
23.4781HOWET VINCENT52BELARCH59:5859:594:12 14.314ve2982
24.4062DUPUIS THOMAS32BELESMESM1:00:251:00:254:14 14.2012sen975MONTIGNY LE TILLEUL
25.990PAQUES THIERRY50BELJOGGPLUS1:00:281:00:284:14 14.195ve2974BEAUFAYS
26.44LELIEVRE THIERRY44BELJOGGANS1:00:461:00:474:16 14.129ve1969JETTE
27.4189THOMAS DOMINIC55BELACCO1:00:481:00:484:16 14.126ve2969
28.387BOSKIN BERNARD28BELLES IDYLLES1:00:451:00:484:16 14.1213sen968STAVELOT
29.4889DESTRES ALEXANDRE25FRAESA591:00:501:00:504:16 14.1114sen967
30.4796LESOIL MATHIAS23BELESM1:00:571:00:574:16 14.0815sen965
31.712LORENT XAVIER35BELBOUFFIOLS1:01:131:01:134:17 14.0216sen961BOUFFIOULX
32.4910DETRAIT HUGUES28BELACCO1:01:161:01:224:18 13.9817sen959
33.4991MAHIA SEBASTIEN30BELBOUFFIOLS1:01:241:01:244:18 13.9818sen957JAMBES
34.4826REGNIER PIERRE40BEL1:01:381:01:384:19 13.9210ve1953
35.4089VAN NIEUWENHOVE TANGUY22BELJACO1:01:361:01:404:19 13.9119sen954SIVRY
36.420CAUDRON DAVID49BELJACO1:01:581:02:014:21 13.8411ve1948FLENU
37.219KOLP VINCENT29BEL1:02:151:02:154:22 13.7920sen943IXELLES
38.4840PELTIER CHRISTOPHE36FRA1:02:171:02:174:22 13.7821sen942
39.4872RENARD BRUNO47BELCPMV1:02:161:02:194:22 13.7712ve1942HAM-SUR-HEURE-NALINNES
40.4110BAILLY NICOLAS42FRACA FOURMIES1:02:581:02:584:25 13.6313ve1932FOURMIES
41.4076LUST ERIC50BELLA THURE1:03:131:03:144:26 13.577ve2928
42.4096IANIRO BAPTISTO25BELACCO1:03:121:03:174:26 13.5622sen927
43.230SANCHEZ POSADA LUIS56BELUSBWCACE1:03:201:03:234:26 13.548ve2925RHODE SAINT GENESE
44.4815TENAERTS THOMAS17BELJACCO1:03:161:03:244:26 13.541esp926
45.181LABBÉ JEAN-MARIE56BEL1:03:251:03:274:27 13.539ve2923EGHEZÉE
46.4236PERPETE JACKY56BELRCNAMUR1:03:281:03:304:27 13.5110ve2922TEMPLOUX
47.4115HARDY MICHAEL44BELTHURE1:03:301:03:314:27 13.5114ve1921BEAUMONT
48.699NOUAMANI MOHAMMED45BELJOGGANS1:03:351:03:354:27 13.5015ve1920GANSHOREN
49.4978CARION GAUTHIER38BELMADRES1:03:411:03:414:28 13.4823sen918
50.291DE VOS DAVID35BELOCAN1:03:461:03:464:28 13.4624sen916THON-SAMSON
51.851BAIJOT PHILIPPE50BELJCCS1:03:471:03:484:28 13.4511ve2916GEDINNE
52.4778DOS SANTOS NEIVA SERGIO43BELARCHARCH1:03:531:03:534:29 13.4316ve1914
53.4212RENARD LUC52BELSHARKS1:03:591:04:044:29 13.4012ve2912
54.4213LEGRAND STÉPHANE47FRACA FOURMIES1:04:061:04:064:29 13.3917ve1910FOURMIES
55.4890BASTIEN OLIVIER28BELBIKERS ASBL1:04:121:04:144:30 13.3625sen908
56.4835DIVRY LAURENT42FRAFFACAF FOURMIES1:04:191:04:194:30 13.3418ve1906
57.850VAN DEN BERGH ALAIN54BEL1:04:211:04:224:31 13.3313ve2905COURCELLES
58.4452NAVEAU MAXIME32BELJACO1:04:261:04:304:31 13.3126sen904FORGES
59.4156ALCESILAS NICOLAS36FRAESACA FOURMIES1:04:481:04:484:32 13.2427sen898FOURMIES
60.198FFOURGEAUX SOPHIE37BELWACO1:04:441:04:514:33 13.231dam899MOHA
61.4932ERNOTTE YVERICK21BEL1:05:081:05:144:34 13.1528sen893
62.4032POUCET ANTOINE34BEL1:05:101:05:154:34 13.1529sen892CHIMAY
63.983CULLOP PAUL55BELENJAMBEE1:05:191:05:204:35 13.1314ve2889BRUXELLES
64.4807GUEUNING BENOIT36BELTAF1:05:201:05:334:35 13.0930sen889
65.292BLONDEAUX YANNICK40BEL1:05:301:05:374:36 13.0819ve1886THY-LE-CHÂTEAU
66.4783ENGLEBERT JEAN-FRANCOIS36BEL1:05:351:05:414:36 13.0631sen884
67.4143MARTIN LIONNEL37FRAROUVROY SPORTS1:05:391:05:444:36 13.0532sen883
68.167GOBATTO MARIO38BELHFHAUTE-FAGNE1:05:521:05:564:37 13.0233sen880PEPINSTER
69.4777VAN MALLEGHEM BERNARD52BELPRFM1:05:571:05:574:37 13.0115ve2878
70.4886LIPPOLIS DOMINIQUE44BEL1:06:021:06:044:38 12.9920ve1877
71.4825DAUSSY EMERIC34FRAFRANCECSCV HIRSON1:06:021:06:084:38 12.9834sen877
72.4428MASSON CHRISTOPHE31BELSHARKS TRIATHLO1:06:071:06:114:38 12.9735sen875WÉPION
73.4787DEVILLERS GILLES31BELCODAGEX1:06:111:06:124:38 12.9636sen873
74.17FDESILLE NICOLE49BEL1:06:111:06:144:38 12.961ai1873LA HULPE
75.956BARTOSZUK ROMAN42BEL1:06:091:06:144:38 12.9521ve1873ZAVENTEM
76.4179ARDOISE FRÉDÉRIC43FRACA FOURMIES1:06:101:06:184:39 12.9422ve1872ANOR
77.4808BENOIT THIBAULT32BELCHIMAY TRAIL AV1:06:141:06:194:39 12.9437sen871VIRELLES
78.677PAULUS PHILIPPE55BELESM1:06:191:06:244:39 12.9216ve2870MONT-SUR-MARCHIENNE
79.556RATINCKX JEAN-PHILIPPE28BELRIWA1:06:171:06:294:39 12.9138sen870OTTIGNIES
80.858POTTIEZ PHILIPPE52BELVERTIGO1:06:371:06:444:40 12.8617ve2865MONS
81.21TOUSSAINT FRANK50BELSCBUT1:06:471:06:474:41 12.8518ve2862SOURBRODT
82.313BELMILOUD MOHAMED66BELGRAC1:06:511:06:544:41 12.831ve3861COUVIN
83.4069GOCHARD MANU50BELPFA1:07:011:07:024:42 12.8019ve2858LANEFFE
84.749FLEROY VALERIE42BELATCC1:07:021:07:024:42 12.802ai1858LANEFFE
85.4042CATOIR BERTRAND39BELESMESM1:06:411:07:034:42 12.8039sen862THUILLIES
86.4967PLICHON ANTOINE25BELESMESM1:06:371:07:094:42 12.7840sen862
87.4775MORTIER PIERRE48BELLA THURE1:07:031:07:114:42 12.7723ve1856
88.264SCAILLET VINCENT47BELHASTRAIL1:07:051:07:144:43 12.7624ve1855HEER SUR MEUSE
89.702GIOVANNANGELO ALAIN64BELESM1:07:201:07:204:43 12.742ve3852NIVELLES
90.4819LIBOIS JOACHIM20BELRCNAMUR1:07:121:07:244:43 12.7341sen853
91.4165GEORGES LAURENT50BELJACO1:07:171:07:254:43 12.7320ve2851ROBECHIES
92.4442JONCKHEER FRED24BEL1:06:581:07:304:44 12.7142sen855MONT.SUR.MARCHIENNE
93.428FDUTRANNOIT VERONIQUE45BELJACO1:07:281:07:314:44 12.713ai1848HAVRE
94.117CERQUEIRA BARTOLOMEU40BEL1:07:191:07:324:44 12.7125ve1850PROFONDEVILLE
95.714MAILIER CHRISTIAN60BELCRACESM1:07:311:07:374:44 12.693ve3846ROUX
96.4456DUMOULIN SEBASTIEN42BEL1:07:351:07:394:44 12.6826ve1845FORGES
97.690LUPCIN PATRICK59BELRCNAMUR1:07:421:07:454:45 12.6721ve2843PERWEZ
98.976MARCHAL ANDRE60BELHF1:07:411:07:454:45 12.664ve3843VERVIERS
99.4081POUCET FABRICE37BELACCO1:07:491:07:494:45 12.6543sen841PETIGNY
100.228MARCHAL YVES46BELRUNNING WILD1:07:551:07:554:45 12.6427ve1839VEDRIN
101.78DUTRIEUX FERNAND45BEL1:07:571:07:574:46 12.6328ve1838BAUDOUR
102.4899FVANDERLINDEN JULIE32BELTRAINING 71:07:581:07:594:46 12.622dam838IXELLES
103.463DEMIN MICHEL48BELTEAM MARCEL1:08:081:08:114:47 12.5829ve1835SOVET
104.4894COLAS SEBASTIEN29FRAROCROY SPORTS N1:08:091:08:144:47 12.5844sen834
105.290BALLEUX CHRISTOPHE40BELZATOPEK NAMUR1:08:071:08:164:47 12.5730ve1834BOIS-DE-VILLERS
106.4487BAILLY JEOFFREY38BELCCSTC1:08:201:08:334:48 12.5245sen831SELOIGNES
107.4105CORDEWENER ALAIN56BELAC FRONTIÈRES1:08:291:08:364:48 12.5122ve2829
108.4252COUNEN OLIVIER42BELCHIMAY TRAIL AV1:07:431:08:414:49 12.4931ve1839LOMPRET
109.4809LELEUX JULIEN30BELCHIMAY TRAIL AV1:08:511:08:564:50 12.4546sen823
110.4426PUISSANT SIMON30BELCHIMAY TRAIL AV1:08:511:08:574:50 12.4547sen823CHIMAY
111.4855MANDERLIER ERIC56BELESMESM1:08:431:09:004:50 12.4423ve2824JUMET (CHARLEROI)
112.74BROUWIER PIERRE64BELHERV1:09:031:09:084:51 12.415ve3819GRAND RECHAIN
113.4108PAQUET OLIVIER40BELJACO1:09:001:09:124:51 12.4032ve1820COUVIN
114.4034NAVEAU SÉBASTIEN33BEL1:09:071:09:164:51 12.3948sen818
115.30HANNOTTE CHRISTOPHE43BELRUNNING FERNELM1:09:161:09:264:52 12.3633ve1815NOVILLE-LES-BOIS
116.58HENRY ANDRE56BELRCB1:09:341:09:364:52 12.3324ve2811LA HULPE
117.889LECRENIER BENJAMIN32BELFLEU1:09:291:09:364:53 12.3349sen812FRANIERE
118.4187VAN GHELUWE RÉMI36FRAJACOJACO1:09:371:09:374:53 12.3350sen810LA NEUVILLE AUX JOUTES
119.294HASSOUTE EL MOUSTAFA50BELCSFMYSTERE1:09:241:09:374:53 12.3325ve2812FOREST
120.4902MAZY CLEMENT31FRAGRAC RENWEZ1:09:331:09:384:53 12.3251sen809
121.265BOONEN CHRIS45BELAVN1:09:351:09:444:53 12.3034ve1809MEER
122.97FLEROY FABIENNE42BELWACO1:09:511:09:554:54 12.274ai1805BERLOZ
123.4788GUY PIERRE64FRAAC FRONTIÈRES1:09:421:09:564:54 12.276ve3807
124.566DE MARCHI NICO56BEL1:09:541:09:574:54 12.2726ve2804LIEGE
125.4795AMANT BERTRAND33BELLA THURLA THURE1:09:491:09:584:54 12.2752sen804
126.4200RARY EMERIC29BELJCHSHJCHSH1:09:561:09:584:54 12.2653sen802GOZÉE
127.4757VANDEGHINSTE GRÉGOIRE17BELESMESM1:09:491:10:014:54 12.262esp804
128.4137SOBRY MATHIEU32BELJACO1:10:021:10:024:54 12.2554sen800CHIMAY
129.4231DAMOISAUX PASCAL51BELRCNAMUR1:09:551:10:054:54 12.2527ve2801BELGRADE
130.4088FVAN NIEUWENHOVE JULIE20BELJACO1:10:021:10:054:55 12.243dam799SIVRY-RANCE
131.4929BERNARD STEPHANE35FRA1:09:571:10:134:55 12.2255sen800
132.4905NAERT FRANCK51BELHCO1:10:181:10:184:55 12.2128ve2795
133.4207GRUMIAUX LUCAS17BELJACO1:09:581:10:204:56 12.203esp799BAILIEVRE
134.938POMILIO NICOLA46BELSPIBO1:10:181:10:234:56 12.1935ve1794QUAREGNON
135.4478BELLENGER BRUNO46BELJTRR1:10:031:10:284:56 12.1836ve1797COUVIN
136.4954JENNEQUIN MAXIME26BELFC BOOSSU1:10:181:10:374:57 12.1556sen794
137.798FDEBONI MALORIE32BELCSFMYSTERE1:10:391:10:404:57 12.144dam789UCCLE
138.4180MAERSCHALCKE PHILIPPE45BELJCHSHJCHSH1:10:171:10:434:57 12.1337ve1793HAM-SUR-HEURE
139.859FKHARROUBI AWATEF44BELJCCS1:10:331:10:454:57 12.135ai1789GEDINNE
140.4157LEROY JEAN-PIERRE45BELACCO1:10:521:10:524:58 12.1138ve1785
141.4124WILMART SÉBASTIEN31BELJACO1:10:451:10:524:58 12.1157sen786MONCEAU-IMBRECHIES
142.209FDE GREVE GEERTRUI41BELETCHIEVR1:10:531:10:584:58 12.096ai1784EREMBODEGEM
143.425DE GRAVE OLIVIER51BELCSFMYSTERE1:10:491:11:014:58 12.0829ve2784UCCLE
144.4161GUILLAUME SÉBASTIEN22BELJACO1:11:031:11:074:59 12.0758sen781BAILEUX
145.4243DE VRIENDT JEFFRY34BELRCN1:11:011:11:074:59 12.0759sen781
146.4163PIACENTINI MARCO60ITAESM1:11:151:11:205:00 12.037ve3777GOZEE
147.4227FICHET LAURENT43BELJACO1:11:231:11:235:00 12.0239ve1775BAILEUX
148.4128BAÏOLET MAXIME27BELSHARKS TRIATHLO1:11:251:11:295:00 12.0160sen774SELOIGNES
149.4194LIBERT OLIVIER43BELCCSTC1:11:281:11:345:01 11.9940ve1773SELOIGNES
150.146VAN NEVEL FRANS62BELBEHO1:11:321:11:375:01 11.988ve3772BRUGGE
151.4171FPETERINK JUDITH36NLDAVC1:11:191:11:385:01 11.985dam774BEVERWIJK
152.236DUYCK XAVIER49BEL1:11:361:11:425:01 11.9741ve1771SPY
153.876GODFROID YVES49BELUSBWMYSTERE1:11:381:11:465:02 11.9642ve1770WATERLOO
154.465BOSKIN JEAN-CLAUDE61BELLES IDYLLES1:11:401:11:505:02 11.959ve3769STAVELOT
155.4773BOUILLET NICOLAS37BEL1:11:481:11:545:02 11.9361sen767
156.4490DEDONCKER DAMIEN42BELJACO1:11:531:12:055:03 11.9043ve1765VILLERS LA TOUR
157.986BIERNAUX BENOIT55BELRCNAMUR1:12:031:12:145:04 11.8830ve2763NAMUR
158.4885DEBORTOLI NICOLAS27BEL1:11:471:12:165:04 11.8762sen766
159.748SALAZAR NOEL43BEL1:12:061:12:175:04 11.8744ve1761SINT-JANS-MOLENBEEK
160.789FCORDIER CHRISTINE50BEL1:12:131:12:215:04 11.861ai2759JUPRELLE
161.4858LAMBIN JEAN-LUC52BELLA THURE1:12:181:12:265:04 11.8531ve2758SIVRY
162.4843ROUSSELLE JOËL64BELLES MOTIVES DE 1:12:271:12:295:05 11.8410ve3756FALISOLLE
163.765MATERNE DANIEL58BELUSBWMYSTERE1:12:291:12:345:05 11.8232ve2755BRAINE-L'ALLEUD
164.842FVAN DEN BERGH MARGAUX21BEL1:12:421:12:485:06 11.796dam752COURCELLES
165.68MASURE ALEXANDRE46BELRCNAMUR1:12:431:12:545:06 11.7745ve1751LEUZE
166.4470BRICHARD GILLES56FRA1:12:501:12:575:07 11.7633ve2749BEAULIEU LES FONTAINES
167.4785PETRISOT PHILIPPE54BEL1:13:111:13:115:08 11.7334ve2745
168.4789QUEVAUVILLERS NICOLAS35BEL1:13:021:13:195:08 11.7063sen746
169.658DECAMPS ERIC49BELESM1:13:211:13:265:09 11.6846ve1742GOZEE
170.4264BEDORET GEOFFREY30BEL1:13:051:13:345:09 11.6664sen745
171.128BAURIN HERVE51BEL1:13:291:13:375:09 11.6635ve2739AGIMONT
172.4160GUILLAUME JULIEN24BELJACO1:13:481:13:525:10 11.6265sen735BAILEUX
173.955TOUSSAINT XAVIER36BEL1:13:481:14:005:11 11.6066sen735ANDERLUES
174.4030CORDEWENER PATRICE52BELAC FRONTIÈRES1:13:461:14:005:11 11.6036ve2735
175.531ANTENUCCI MAURO59BELESM1:14:001:14:065:11 11.5837ve2731GOSSELIES
176.4223BAILLY KARL42BELJACOJACO1:14:061:14:065:11 11.5847ve1730CHIMAY
177.70LECLERCQ CEDRIC37BEL1:13:521:14:085:12 11.5767sen732LIERNU
178.4159GUILLAUME YVES50BELJACO1:13:591:14:105:12 11.5738ve2730BAILEUX
179.4859JORISSEN PHILIPPE50BEL1:13:511:14:105:12 11.5739ve2732
180.32JACQUEMIN PATRICK51BEL1:13:571:14:115:12 11.5740ve2730HANNUT
181.213FBERGHEZAN MARIE-CHRISTINE52BELUSBWMYSTERE1:14:051:14:145:12 11.562ai2728MARCHE-LEZ-ECAUSSINES
182.4800DAMBOIS THIERRY47BELUAC1:13:581:14:195:12 11.5548ve1729
183.4873DEKNOP BENOIT46BELJCHSH1:14:191:14:205:12 11.5449ve1724JAMIOULX
184.308DEVALERIOLA PATRICK52BELPROVINCE NAMUR1:14:061:14:205:12 11.5441ve2727SUARLEE
185.429DENEFFE PHILIPPE55BELJCHOUYET1:14:011:14:225:13 11.5442ve2727HOUYET
186.22DE MASI GIANNI63BELFLEU1:14:201:14:235:13 11.5411ve3723WANFERCEE BAULET
187.404TILBURGS FRANK49BELAVN1:14:211:14:325:13 11.5150ve1722MEER
188.4224BAZEN ELTJO38NLD1:14:341:14:355:13 11.5068sen719NIJMEGEN
189.4041GUIOT PASCAL46BELSHARKS TRIATHLO1:14:081:14:385:14 11.5051ve1724CHIMAY
190.4799BADIN DIRK40BELJC ESTINNES1:14:401:14:415:14 11.4952ve1718
191.4804DEMINNE THIERRY56BELJC ESTINNES1:14:391:14:415:14 11.4943ve2717ERQUELINNES
192.4865HERMANT THIBAUT17BEL1:14:261:14:435:14 11.484esp719
193.4038DUBOIS SYLVAIN41FRA1:14:441:14:465:14 11.4853ve1715VENDEGIES SUR ECAILLON
194.4121TRULLEMANS ALAIN59BELRCNAMUR1:13:551:14:465:14 11.4844ve2725BEEZ
195.695DE DAPPER DAVID43BELCSFMYSTERE1:14:481:14:495:14 11.4754ve1714BRUXELLES
196.4816FONTAINE JONATHAN31FRA1:14:441:14:535:15 11.4669sen714
197.4962MASSART FRÉDÉRIC39BELFLEU1:14:261:14:555:15 11.4570sen717BRYE
198.4188PUYLAERT DOMINIQUE52BELRCNAMUR1:14:571:14:575:15 11.4545ve2711JAMBES
199.841SALVATO DOMENICO53ITACSFMYSTERE1:14:551:14:585:15 11.4546ve2711BRUXELLES
200.4484HENRARD ETIENNE57BELAC FRONTIÈRES1:14:431:14:595:15 11.4447ve2712BAILEUX
201.148HALLEUX JEAN-MARIE46BELHERVL AVENIR1:14:501:15:035:15 11.4355ve1711HERVE
202.4772FLELONG SABINE42FRACAFCAF1:15:141:15:155:16 11.407ai1706FOURMIES
203.4118DUJARDIN SAMUEL29BELJTRR1:15:021:15:225:17 11.3971sen708COUVIN
204.75ADANS JULIEN31BELMYSTERE1:15:161:15:235:17 11.3872sen704LEUZE
205.4990COULON RUDDY54BEL1:15:111:15:335:17 11.3648ve2705CLERMONT
206.4158GUERREAU MAURICE53BELSHARKS1:15:491:15:495:19 11.3249ve2697
207.4868PRÈVE SAMUEL42BEL1:14:591:15:505:19 11.3256ve1707BEAURAING
208.4192MERSCH SEBASTIEN39BEL1:15:271:15:515:19 11.3173sen701STREE
209.4191MERSCH JULIEN33BEL1:15:281:15:525:19 11.3174sen700MARBAIX LA TOUR
210.4475REICHLING JEAN-MARC55BELSHARKS1:15:441:15:545:19 11.3150ve2696COUVIN
211.4064HAINAUT JEAN-BAPTISTE31BEL1:15:301:15:565:19 11.3075sen699NAMUR
212.4095MAHY JEAN-LUC49BELJACO1:15:581:15:585:19 11.3057ve1693BAILEUX
213.4144COENE MARC52BELJACO1:15:351:15:595:19 11.2951ve2697CHIMAY
214.332HANNARD KEVIN33BEL1:15:531:16:045:20 11.2876sen693AUVELAIS
215.991DE HERTOG PHILIPPE46BELGRIMAFRIT 71:15:461:16:125:20 11.2658ve1694WETTEREN
216.4174TERMES COR61NLDAVC1:15:561:16:155:20 11.2512ve3692LIMMEN
217.896FGODFROID LUCIE20BELUSBWMYSTERE1:16:081:16:275:21 11.227dam689WATERLOO
218.907FTHIRY MARIE34BELRCNAMUR1:16:241:16:285:21 11.228dam685NANINNE
219.848DEVIERE MICHEL53BELFORESTIERE1:16:241:16:365:22 11.2052ve2685MONS
220.4864FROIDBISE JEAN - LUC55BELFOULÉES DU PLAI1:16:151:16:395:22 11.1953ve2686
221.4215NUTELET CARLOS62BELS'CASSENES RUNN1:16:011:16:455:22 11.1813ve3689ECAUSSINNES
222.4130DE PESTEL HERVÉ54BEL1:16:431:16:525:23 11.1654ve2680
223.4443LEROY LUC48BELJACO1:16:311:16:535:23 11.1659ve1682VIRELLES
224.4419COENE FRÉDÉRIC42BEL1:16:381:16:535:23 11.1660ve1680MOMIGNIES
225.194AUBERT SERGE61BEL1:16:401:16:545:23 11.1614ve3680GERPINNES
226.4413SCOUBEAU OLIVIER53BELH.A.C.1:16:501:17:015:24 11.1455ve2677SPIENNES
227.4414HALBRECQ BERTRAND42BEL1:16:501:17:015:24 11.1461ve1676BIERCÉE
228.4915DAUCHOT MICHEL50BELLA FORESTIERE1:16:301:17:035:24 11.1456ve2680
229.337DAMSTEN THIERRY52BEL1:16:461:17:035:24 11.1457ve2676ROSIERES
230.4770DUPONT ERIC54BELHARNES1:16:091:17:045:24 11.1358ve2683
231.4867ALARDAIN CHRISTOPHE36FRAROCROY SPORTS N1:17:011:17:085:24 11.1277sen673RENWEZ
232.4153FRAHTIA MADANI50BELACCOACCO1:17:081:17:085:24 11.1259ve2671PETIGNY
233.4422FALISE VALENTIN27BEL1:17:211:17:265:25 11.0878sen668VIRELLES(CHIMAY)
234.4229HOUGARDY BENOÎT52BELRCNAMUR1:17:151:17:295:26 11.0760ve2669SUARLEE
235.4973CORDEWENER LAURENT47BELAC FRONTIÈRES1:17:161:17:305:26 11.0762ve1668
236.4211WATTIN MICKAEL37BELJCM1:17:131:17:335:26 11.0779sen668LEERNES
237.4895ALLOUCHI SOULIMED44BELUAC1:17:141:17:355:26 11.0663ve1668
238.525PERVEUX OLIVIER38BELFORESTIERE1:17:351:17:355:26 11.0680sen663MASNUY-SAINT-PIERRE
239.4255VAN HAUWE THIBAUT28BELBOUFFIOLS1:17:021:17:375:26 11.0681sen669
240.4913HANTHAZI KEVIN24BEL1:17:111:17:395:26 11.0582sen667FORGES
241.4397MATHIEU JEAN-POL54BELJCCS1:17:211:17:425:26 11.0461ve2665RIENNE
242.4848LEFEVRE ARNAUD40FRA1:17:171:17:435:27 11.0464ve1665
243.4768RAIMBEAUX ALDO27BELGRAC1:17:431:17:435:27 11.0483sen660
244.4971FROENIGS FABIENNE46BEL1:17:251:17:455:27 11.048ai1663
245.535ROMBAUX MARC56BELCSDY1:17:381:17:475:27 11.0362ve2660LOUVAIN LA NEUVE
246.886DEWOLF PHILIPPE65BELESM1:17:341:17:495:27 11.0315ve3660MERBES SAINTE MARIE
247.4457VANDROMME DAVID34BEL1:17:411:17:505:27 11.0284sen659ACOZ
248.4418BOULENGER EDOUARD36FRA1:16:571:17:505:27 11.0285sen667AULNOYE-AYMERIES
249.4965ROSILLON DOMINIQUE59BELARCH1:17:251:17:545:27 11.0263ve2661SOREE
250.4129BOURGUIGNON GUILLAUME30BEL1:17:401:17:555:27 11.0186sen658VIRELLES
251.4907ROMAIN JEAN-FRANÇOIS45BELBOUFFIOLS1:17:561:17:565:27 11.0165ve1654
252.193BARBE MICHEL36BEL1:17:231:17:565:27 11.0187sen660BUZET
253.4183PONCELET JOSÉ66BELAC FRONTIÈRES1:17:411:17:565:27 11.0116ve3656
254.4918VISEE BANJAMIN18BELJACO1:16:551:17:565:27 11.015esp665
255.4029CORDEWENER JOËL41BELAC FRONTIÈRES1:17:431:17:575:28 11.0166ve1655
256.4477FPARAGE ODILE43BELJTRR1:17:411:17:595:28 11.009ai1655COUVIN
257.4995BRUYNBROEK LOIC19BEL1:17:501:18:065:28 10.996esp653
258.4436MARCHAL LUC52BEL1:17:541:18:095:28 10.9864ve2652AUBLAIN
259.466FDEMOULIN BRIGITTE56BELRCNAMUR1:17:571:18:115:28 10.983ai2650LUSTIN
260.963FRUTAR SOPHIE28FRAMYSTERE1:17:531:18:135:29 10.979dam651SAINT-GILLES
261.4972SIBILLE THIBAUD31BEL1:18:151:18:155:29 10.9788sen646
262.4916LABENNE VINCENT44BEL1:18:101:18:265:30 10.9467ve1647
263.4209BOURLARD MARC39BELJACO1:18:021:18:275:30 10.9489sen648BAILEUX
264.4831VAN ASSEL TEDDY38FRA1:17:201:18:275:30 10.9490sen656
265.4919BERTRAND BRUNO50BEL1:17:481:18:285:30 10.9365ve2650
266.4797DE CLERCQ GUY57BEL1:17:511:18:295:30 10.9366ve2649
267.4996LECUYER FRED45FRA/1:17:461:18:365:30 10.9268ve1649LES MAZURES
268.4980DEMOULIN JOSE70BELBAIL RUN1:18:241:18:455:31 10.901ve4642EVREHAILLES
269.483FDE WOOT ANTOINETTE52BELESM1:18:131:18:455:31 10.904ai2643MARCHIENNE-AU-PONT
270.4198DAOUST KEVIN33BEL1:18:041:18:475:31 10.8991sen645DAOUSSOULX
271.696LECLEF SEBASTIEN36BELCSFMYSTERE1:18:471:18:515:31 10.8892sen636FOREST
272.4244BERGER SEBASTIEN40FRACAFESA591:18:501:18:535:31 10.8869ve1635FERON
273.517KOLP CHRISTIAN62BELET ENGHIEN1:18:501:18:565:32 10.8717ve3635HORRUES
274.203ALBERT MICHEL55BELRCNAMUR1:18:501:18:575:32 10.8767ve2634NAMECHE
275.4982BEAUTRIX LAURENT41BEL1:18:481:18:575:32 10.8770ve1634MAUBEUGE
276.4031SOBRY SIMON29BELJACO1:18:421:18:585:32 10.8793sen635CHIMAY
277.4039DEVENS THOMAS39BEL1:18:251:19:055:32 10.8594sen638OVERPELT
278.4463FFOULON MARIE-CHRISTINE59BEL1:19:121:19:125:33 10.835ai2628CHIMAY
279.4498BROUNS BART31NLD1:18:351:19:165:33 10.8395sen635DEN HAAG
280.989PAQUES BENOIT25BELRFCLSAUCONY1:19:071:19:175:33 10.8296sen628BEAUFAYS
281.4407WOLTÈCHE HERVÉ34BEL1:18:441:19:195:33 10.8297sen632FLÉRON
282.4845MATHELART JULIEN30BEL1:19:091:19:215:33 10.8198sen628COURT SAINT ETIENNE
283.4992THIBAUT VINCENT35BEL1:19:031:19:235:34 10.8199sen628
284.4862STAS CHRISTIAN38BELRUNNING TEAM CO1:18:431:19:245:34 10.81100sen632HUY
285.824GOBERT PASCAL44BEL1:18:541:19:285:34 10.8071ve1629LEUZE
286.4182DUBOIS VINCENT47BELRCNAMUR1:18:401:19:315:34 10.7972ve1631ASSESSE
287.969FRIPIAT DIDIER39BELRCNAMUR1:19:081:19:315:34 10.79101sen626NATOYE
288.246VANTSIOTIS ANASTHASE63FRA1:19:191:19:325:34 10.7918ve3623BARR
289.4044FOLIE CHRISTOPHER34BEL1:18:501:19:335:34 10.79102sen628HAVRÉ
290.296DESSEILLE ERNEST62BELRCNAMUR1:19:071:19:365:34 10.7819ve3625WEPION
291.4493TOSOLINI LUC27FRAJOGGING CLUB HA1:18:481:19:425:35 10.77103sen628ECLAIBES
292.4417DESMAREZ ETIENNE43FRA1:19:381:19:455:35 10.7673ve1618OBRECHIES
293.4909LESCEUX JOSE47BEL1:19:351:19:455:35 10.7674ve1618
294.653SERON BENOIT55BEL1:19:451:19:485:35 10.7568ve2616MALONNE
295.4952TORRES RICARDO42ITABOUFFIOLS1:19:151:19:505:35 10.7575ve1621GERPINNES
296.4964DUMONT DENIS51BEL1:19:381:19:585:36 10.7369ve2616
297.580HOMBROUX MARCEL63BELHANNUT JOG1:19:381:20:015:36 10.7220ve3616MONTENAKEN
298.386SIMONS RUDY46BEL1:19:551:20:055:36 10.7276ve1612LOENHOUT
299.4453FRANCOTTE FLORIAN23BELMOMINOISE1:20:111:20:115:37 10.70104sen609CHIMAY
300.4989WICHT RUDY38BEL1:19:521:20:125:37 10.70105sen612
301.94FPELTGEN MARIE-PAULE55BEL1:20:001:20:135:37 10.706ai2610EGHEZÉE
302.4201RARY JEAN-MARC54BEL1:20:081:20:155:37 10.6970ve2608GOZÉE
303.4904FERNANDEZ-VERA ANTONIO50BELUAC1:19:541:20:175:37 10.6971ve2610CHATELINEAU
304.4094GILLARD JEAN_PIERRE49BELJACO1:19:561:20:225:38 10.6877ve1610BAILEUX
305.4216DEJONGHE CHRISTIAN60BELS'CASSENES RUNN1:19:531:20:255:38 10.6721ve3609ECAUSSINNES
306.378WEYNAND HELMUT73BELSC BUTGENBACH1:20:261:20:365:39 10.652ve4603KRINKELT
307.4099BORNIER DAVID34BEL1:20:231:20:435:39 10.63106sen603MOMIGNIES
308.486CANIVET ROLAND69BELBOUFFIOLS1:20:321:20:465:39 10.6222ve3601NALINNES
309.4999POLI ANTHONY26BEL1:20:241:20:475:39 10.62107sen603
310.4856GIULIANI FERNANDO65BELBOUFFIOLS1:20:321:20:475:39 10.6223ve3600CHATELET
311.4462LIBOIS OLIVIER47BELRCNAMUR1:20:351:20:475:39 10.6278ve1599ANDENNE
312.4101NEYMAN PASCAL48BEL1:20:061:20:485:39 10.6279ve1604SAINT-GÉRARD
313.4942BRISBOIS JEAN47BEL1:20:211:20:495:40 10.6280ve1601
314.4769RICHE ALAIN49BEL1:20:221:20:545:40 10.6181ve1601
315.426QUINET BERNARD64BELFLEU1:20:411:20:575:40 10.6024ve3597GILLY
316.923CEULEMANS NICOLAS46BELANTILOB1:20:371:20:595:40 10.6082ve1597INCOURT
317.4146TONDA SERGE71BELJACO1:21:041:21:045:41 10.583ve4592HIRSON
318.4801BROUTIN ALEXANDRE32FRA1:20:481:21:085:41 10.58108sen594
319.822LECERF JEAN LUC60BELJOGGANS1:20:561:21:135:41 10.5725ve3592UCCLE
320.4784PETRISOT SEBASTIEN28BEL1:21:241:21:245:42 10.54109sen587
321.544ROCHUS DAVID34BEL1:21:021:21:295:42 10.53110sen590PIETRAIN
322.4844FCLEMENT EMELINE24BEL1:21:191:21:305:42 10.5310dam587
323.4822COLLERY BENOIT37FRA1:20:331:21:415:43 10.51111sen595
324.4208FBENBETKA TATIANA41BELJACO1:21:201:21:475:44 10.4910ai1586CHIMAY
325.4930LAMBERT MAXENCE37BEL1:21:301:21:475:44 10.49112sen584
326.4222FPIERROT SABINE46BELLA TURE1:21:201:21:485:44 10.4911ai1585ROBECHIES
327.4497DELERS PASCAL53BELTHURE1:21:211:21:495:44 10.4972ve2584CHIMAY
328.4933BEUGNIES NICOLAS34BEL1:21:401:21:595:44 10.47113sen580
329.4140DE LAZZER GIAN-CLAUDIO51BELJC MONTAGNARD1:21:231:22:075:45 10.4573ve2583LEERNES
330.4238BLOEDJES PETER60NLDAVC1:21:531:22:125:45 10.4426ve3577CASTRICUM
331.331FGODFROID YAEL16BELMYSTERE1:21:281:22:145:45 10.441esf582WATERLOO
332.4033POUCET BERNARD37BELJTRR1:22:261:22:265:46 10.41114sen570DOURBES
333.4469COTELLE MICKAEL44FRA1:21:581:22:285:46 10.4183ve1575ARRAS
334.26DRAMAIX SYLVAIN37BELSPIBO1:22:231:22:365:47 10.39115sen570HERCHIES
335.261RIESTRA JOSE MANUEL46ESPMYSTERE1:22:221:22:425:47 10.3884ve1570UCCLE
336.4947DELWART NICOLAS29BEL1:21:541:22:445:48 10.37116sen574
337.4040VAN CAPPELLEN GIJS36BEL1:22:081:22:455:48 10.37117sen572HULDENBERG
338.4960LECHAT XAVIER27BEL1:21:541:22:465:48 10.37118sen574
339.77MEZIANI MOHAND49BELCSFMYSTERE1:22:341:22:555:48 10.3585ve1566SAINT-GILLES
340.4499WIJNGAARDEN GUIDO44NLD1:22:301:22:555:48 10.3586ve1567TELLIN
341.4854FDORCIMONT CHANTAL49BELESMESM1:22:571:23:125:50 10.3112ai1561
342.4776VERMASSEN MARCEL56BELESMESM1:23:061:23:125:50 10.3174ve2559
343.388BUCHET FREDERIC44BELUSBWMYSTERE1:22:561:23:205:50 10.3087ve1560BRAINE-L'ALLEUD
344.4983PIETTE MICHAEL44BEL1:23:051:23:285:51 10.2888ve1559
345.4847DUMONT JOHAN37BEL1:23:351:23:355:51 10.27119sen553
346.4931BIARD ERIC52BEL1:23:181:23:365:51 10.2675ve2555FORGES
347.4251SCOUPPE GERY54BEL1:22:291:23:375:51 10.2676ve2564BRAINE-L'ALLEUD
348.4941FDELITTE BENEDICTE49BELESMESM1:23:211:23:375:51 10.2613ai1554
349.4228DEVALLEE CLAUDY37BEL1:23:161:23:385:51 10.26120sen555FROIDCHAPELLE
350.4871VASSART DOMINIQUE54FRAGRAC1:22:341:23:415:52 10.2577ve2561
351.4098POCHET DIMITRI24BELJC MONTAGNARD1:23:351:23:575:53 10.22121sen550WALCOURT
352.4953COSTANZO ERASMO33BELBOUFFIOLS1:23:591:23:595:53 10.22122sen546
353.4923GERMY PASCAL48BELESMESM1:23:421:23:595:53 10.2289ve1548
354.4951BIERLAIRE NICOLAS39BELBOUFFIOLS1:23:241:24:005:53 10.21123sen551
355.4939GOBINET PASCAL51FRACSCVHHIRSON1:23:561:24:025:53 10.2178ve2545
356.614MONFORT JOSE63BELWRC LIERNEUX1:23:451:24:075:53 10.2027ve3546VIELSALM
357.784BIENFAIT BENJAMIN33BELÉOLIEN1:23:381:24:165:54 10.18124sen547QUEVY-LE-PETIT
358.4934FDUMONT LUCIE18FRABOXING CLUB HIR1:24:261:24:285:55 10.162esf538
359.4066MAGOTTEAUX HUBERT53BELNAC1:24:111:24:285:55 10.1679ve2540OBAIX
360.4230LALEAUX CEDRIC43FRALES CHAUFFE LA 1:23:481:24:305:55 10.1590ve1544NEUVELLE LES LA CHARITÉ
361.4779COLINET STEPHANE45BEL1:23:341:24:405:56 10.1391ve1546
362.654KIPS DAVID33BELRCNAMUR1:23:431:24:435:56 10.13125sen544GEMBLOUX
363.4131FGENIN KATHLEEN37BELRCNAMUR1:23:451:24:435:56 10.1311dam544PROFONDEVILLE
364.55ROBERTI DE WINGHE MAX61BELLACERONVAU1:24:241:24:465:56 10.1228ve3536ARCHENNES
365.607TOUSSAINT PATRICK47BELSC BUTGENBACH1:24:411:24:555:57 10.1092ve1533WAIMES
366.71DE HERTOG DANIEL57BELGRIMAFRIT 71:24:281:24:565:57 10.1080ve2535GRIMBERGEN
367.197ZYLBERBERG LUC64BELJOGGANS1:24:251:25:005:57 10.1029ve3535MOLENBEEK
368.140FKOHL ANGELIQUE47BELHUY1:24:531:25:005:57 10.1014ai1529HUY
369.4943VERHASSELT MICHEL51BEL1:24:581:25:015:57 10.0981ve2528
370.4828DELATTRE ARNAUD38BELJT BESONRIEUX1:24:251:25:045:57 10.09126sen534
371.662NOSSAINT PHILIPPE56BELRCNAMUR1:24:161:25:045:57 10.0982ve2535ANDENNE
372.4119LAURENT LUC49BELRIWA1:24:391:25:125:58 10.0793ve1530BIERGES
373.805MATHELART PIERRE56BELANTILOB1:25:051:25:145:58 10.0783ve2525COURT SAINT ETIENNE
374.4817HENRY PHILIPPE45BELLA THURE1:25:051:25:155:58 10.0794ve1525
375.4401LOSSEAU CHRISTOPHE31BEL1:24:241:25:195:58 10.06127sen532MONTIGNY-LE-TILLEUL
376.225JOUAN BERNARD51BEL1:25:271:25:275:59 10.0484ve2520THYNES
377.4172POLAK ROBBERT53NLD1:24:501:25:386:00 10.0285ve2526CASTRICUM
378.4963FATIGHEHCHI LEILLA28BEL1:25:301:25:456:00 10.0112dam519L ESCAILLERE
379.4877BOMBLED CHRISTOPHE43BEL1:25:101:25:476:00 10.0095ve1522
380.134GILON MARC53BELRCNAMUR1:25:371:25:506:01 10.0086ve2517NAMUR
381.4432ANTOINE EDDY43BELGRANNY1:25:061:25:506:01 10.0096ve1522COUVIN
382.4891FABRE MICHAEL45BELHUY ATHLETIC CL1:25:431:25:526:01 9.9997ve1515
383.4415TERZINI SERAFINO61BELMETTET JC1:25:331:25:546:01 9.9930ve3516GOUTROUX
384.124LE CHARLIER BAUDOUIN66BEL1:25:311:25:586:01 9.9831ve3516NAMUR
385.4204FGOBLET ANNICK53BELACCO1:25:461:25:596:01 9.987ai2513MARIEMBOURG
386.726WILK JANUSZ56BEL1:25:371:26:056:02 9.9787ve2514UCCLE
387.4225DE MEIJER MAARTEN34NLD1:26:071:26:076:02 9.96128sen509NIJMEGEN
388.454MAURO CALOGERO76BELSERSER ATHL1:25:511:26:156:02 9.954ve4511SERAING
389.4805FMERTENS PATRICIA53BELVERTIGO1:25:331:26:156:02 9.958ai2514
390.4793POTY FRANCIS53BELJCHSH1:25:441:26:176:03 9.9488ve2512
391.4977MAGOTTEAUX ROMAIN26BEL1:25:311:26:206:03 9.94129sen513
392.4987FMAUFROID VIOLAINE36BEL1:25:501:26:206:03 9.9413dam510
393.4193FD'HULSTER MURIEL55BELJACO1:25:471:26:206:03 9.949ai2510SELOIGNES
394.4085PARISELLE JACKY62FRAAC FRONTIÈRES1:25:481:26:216:03 9.9432ve3509
395.4142CULOT CÉDRIC39BELJTRR1:25:471:26:286:03 9.92130sen509PETIGNY
396.4924NAUTS THIERRY34BEL1:25:311:26:316:03 9.92131sen511
397.4072PASQUE MICHEL63BELRRT CHÂTELET1:26:131:26:316:03 9.9233ve3504MARCINELLE
398.4084BEAUGET PATRICK50BELJTRR1:26:321:26:326:04 9.9289ve2500
399.4437FTRIQUET CLAIRE30FRA1:25:461:26:346:04 9.9114dam507LIESSIES
400.4438USCHINSKI GONZAGUE31FRA1:25:481:26:346:04 9.91132sen507LIESSIES
401.4440POULET GÉRARD40FRA1:25:481:26:346:04 9.9198ve1506LIESSIES
402.4439PARADIS PHILIPPE65FRA1:25:491:26:356:04 9.9134ve3505LIESSIES
403.4458CHANTEUX ALEXANDRE34BEL1:26:201:26:386:04 9.91133sen500CERFONTAINE
404.807SCAUT PIERRE31BELJC HSH1:26:181:26:456:04 9.89134sen500HAM-SUR-HEURE
405.366FLANSLOTS VIVIANE51BELAVN1:25:591:26:476:05 9.8910ai2503MERKSPLAS
406.847FARNOULD SYLVIE40BELRCNAMUR1:26:231:26:486:05 9.8915ai1498YVOIR
407.4190HONORE DAVID48BELESMESM1:26:481:26:496:05 9.8899ve1493GOUTROUX
408.808FCHABEAU VINCIANE55BELANTILOB1:26:421:26:546:05 9.8811ai2494COURT SAINT ETIENNE
409.4846MINET LAURENT49BELDEDE'S FOULEES1:26:111:26:566:05 9.87100ve1499GELBRESSEE
410.100BERTRAND NICOLAS32BELRRTC1:26:471:26:596:05 9.86135sen492BOIS DE VILLERS
411.4494FMASSART MARYN21BELRCNAMUR1:26:111:26:596:05 9.8615dam498NAMUR
412.4482GANTIEZ CLÉMENT28FRARCNAMUR1:26:421:27:076:06 9.85136sen492PARIS
413.846POELMANS DOMINIQUE55BELRCNAMUR1:26:411:27:076:06 9.8590ve2492EVREHAILLES
414.4111SERVAIS GERALD43BELCCSTC1:26:551:27:106:06 9.84101ve1489CASTILLON
415.514GREVISSE DAVID42BELRONVAU1:26:421:27:126:06 9.84102ve1491DION VALMONT
416.4908FLAMBERT BARBARA34BEL1:26:561:27:136:06 9.8416dam488
417.4944LABY MAXIME22BELJACO1:26:131:27:136:06 9.84137sen495
418.177HIGUET PIERRE52BELJCCS1:26:451:27:256:07 9.8291ve2490VONECHE
419.4148VAN CORNEWAL BENOÎT35FRA1:27:261:27:266:07 9.81138sen482FAMARS
420.4136NOPRE VINCENT44BEL1:27:281:27:286:07 9.81103ve1481BRUXELLES
421.91GEERAERTS JOS56BELCSFMYSTERE1:27:301:27:306:08 9.8192ve2481BUIZINGEN
422.4906CECERE SANDRO32BELBOUFFIOLS1:26:561:27:326:08 9.80139sen486
423.4468CRENLEUX VINCENT46FRA1:27:021:27:326:08 9.80104ve1485BAILLEUL SIRE BERTHOULT
424.4897SEVERINO THOMAS32BELBOUFFIOLS1:26:561:27:346:08 9.80140sen485
425.603DAMIEN CLEMENT22BEL1:27:101:27:346:08 9.80141sen482LOUFTEMONT
426.516HUNIN STEPHANE34BEL1:27:041:27:356:08 9.80142sen483WOLUWE-SAINT-LAMBERT
427.4114HONORE DENIS41BEL1:27:201:27:386:08 9.79105ve1480
428.4170FMIN MIEKE34NLDAVC1:26:531:27:406:08 9.7917dam484AKERSLOOT
429.502FAERTS CATHLYNE53BELJOGGANS1:27:301:27:476:09 9.7812ai2477BRUXELLES
430.993LELOUP STEPHAN62BEL1:27:201:27:536:09 9.7635ve3478ROSIERES
431.4404VAN CROMPHAUT JEREMY30BELJACO1:27:061:28:116:10 9.73143sen481CHIMAY
432.468FDEMIN LIEVE49BELMYSTERE1:27:521:28:116:10 9.7316ai1472BRUXELLES
433.283FPOELMANS AUDREY30BELRCNAMUR1:27:491:28:136:11 9.7318dam472PERWEZ
434.4857CARDINAL MARIUS15BELLES SARTOIS1:27:131:28:136:11 9.737esp478
435.4813FABAIDI YASMINA38FRAOTCOTC1:27:481:28:186:11 9.7219dam472
436.4812ARDMATARIO VINCENT54BELOTCOTC1:27:481:28:196:11 9.7293ve2471
437.4870ANGELY OLIVIER28BEL1:27:391:28:196:11 9.72144sen473WATERLOO
438.161ANGELY GAETAN69BELUSBW1:27:411:28:206:11 9.7236ve3472WATERLOO
439.4398SPONGA MARTINO38BEL1:28:071:28:206:11 9.71145sen467WOLUWE SAINT LAMBERT
440.212GALAIS JEAN-MICHEL50BEL1:27:361:28:256:11 9.7194ve2472LINSMEAU
441.4882MAUDOUX CHRISTIAN53BELLA THURE1:27:491:28:286:12 9.7095ve2469
442.4958ANSELIN DOMINIQUE46FRA1:27:341:28:326:12 9.69106ve1471
443.4164LIÉGEOIS PASCAL59BELESM1:28:081:28:416:13 9.6896ve2465FONTAINE-L'EVÊQUE
444.4969GARCIA JOSE-LOUIS55ESP1:28:211:28:466:13 9.6797ve2463
445.987FMOHIMONT NATHALIE47BELRCNAMUR1:28:211:28:486:13 9.6617ai1462COURRIERE
446.4866HERMANT PHILIPPE46FRA1:27:531:28:556:14 9.65107ve1466
447.4210POUSSART MICHAEL42BEL1:27:581:28:576:14 9.65108ve1465VIRELLES
448.4839CAPORALE JULIEN28BELBOUFFIOLS1:28:251:29:006:14 9.64146sen460
449.4892SEVERINO JOSEPH36BEL1:28:231:29:016:14 9.64147sen460
450.755VAN HEULENBERGHE FRANK60BEL1:28:211:29:026:14 9.6437ve3460GENT
451.4841FCASTELEYN TAMARA46BELUAC1:28:501:29:096:14 9.6318ai1455
452.4473MICHEL DIMITRI41BELESM1:28:521:29:106:15 9.62109ve1454GILLY
453.4861DE FRE HANS53BELLASMELMOL1:29:041:29:386:17 9.5798ve2451
454.191FVANDERAST CAROLINE40BELUSBWMYSTERE1:29:121:29:426:17 9.5719ai1450BRAINE-L'ALLEUD
455.4451FSCHEYVEN GENEVIÈVE48BELRCNAMUR1:28:551:29:446:17 9.5620ai1452BEEZ
456.820BIENFAIT QUENTIN38BELMSF1:29:501:29:506:17 9.55148sen442BRAY
457.200FCORNET ANNE50BELFLEU1:29:201:29:506:17 9.5513ai2447JEMEPPE SUR SAMBRE
458.879FGEERAERTS MAGALI28BELCSFMYSTERE1:29:141:29:516:17 9.5520dam448BUIZINGEN
459.4241MASSART VICTOR63BELLES BOUFFIOLS1:29:141:29:536:18 9.5538ve3447COUILET
460.4496LABBE CHRISTIAN66BELRCNAMUR1:29:261:29:536:18 9.5539ve3445VEDRIN
461.526NORMAND DANIEL55BELJCCS1:29:371:29:576:18 9.5499ve2443RIENNE
462.4814MABILLE JOEL49BELJCHSHJCHSH1:29:251:30:046:18 9.53110ve1444
463.4433FLENOIR VANESSA41BELJTRR1:29:391:30:066:18 9.5221ai1442DOURBES
464.411LUYPAERT ARMAND66BELGRIM1:29:441:30:116:19 9.5140ve3440MEISE
465.4232FLAPAGNE FRANÇOISE53BELRCNAMUR1:29:221:30:136:19 9.5114ai2443NAMUR
466.4966BORGERS LUDOVIC37BEL1:29:581:30:176:19 9.50149sen437
467.4460DENAYER VINCENT52BELLA THURE1:29:211:30:186:19 9.50100ve2443
468.4459FDEMAIN CORINNE49BELLA THURE1:30:191:30:196:19 9.5022ai1433
469.424DRIESSENS PIERRE69BEL1:30:011:30:246:20 9.4941ve3435SERAING
470.4824LAHR PHILIPPE46FRAJTRR1:29:561:30:246:20 9.49111ve1436
471.4256FTISSERANT STEPHANIE32FRA1:29:411:30:266:20 9.4921dam438
472.4483FBALDUIN FANNY30FRA1:29:261:30:286:20 9.4922dam440RUE ALEXANDRE 3
473.4791FSLIWINSKI SYLVIANNE58BEL1:30:151:30:306:20 9.4815ai2431JEMEPPE S/SAMBRE
474.4214NAVAUX PIERRE53BELS'CASSENES RUNN1:29:161:30:316:20 9.48101ve2441MIGNAULT
475.4181FMONTEGNIES MARYLÈNE35BELJCHSHJCHSH1:30:051:30:316:20 9.4823dam432HAM-SUR-HEURE
476.4090FIORITO ANTONIO60BELJACO1:30:051:30:356:21 9.4742ve3432CHIMAY
477.812BATISTIC PATRICK52BELRONVAU1:29:581:30:376:21 9.47102ve2433NALINNES
478.992LETHE VINCENT56BELRONVAU1:29:591:30:386:21 9.47103ve2432TOURINNES-SAINT-LAMBERT
479.4120DOUTRELIGNE HERVÉ56BELRIWARIWA1:30:051:30:406:21 9.46104ve2431GENVAL
480.4132LOUETTE LAURENT33BEL1:30:451:30:456:21 9.45150sen424MONTIGNIES SAINT CHRISTOP
481.4884FFOUCARTE MARIE LINE35BELGERP&CO1:30:101:30:476:21 9.4524dam429
482.4838FROLIN MARTINE60BELACCO1:30:411:30:536:22 9.441ai3423
483.4135FSTERCKX FABIENNE48BEL1:30:361:31:006:22 9.4323ai1424PONT DE LOUP
484.4912FAFET CEDRIC38FRACA FOURMIES1:30:521:31:016:22 9.43151sen421
485.4481FVANDERSCHUEREN JULIE32BEL1:30:331:31:016:22 9.4325dam424BRUXELLES
486.4495HARDENNE JOEL50BELRCNAMUR1:30:371:31:036:23 9.42105ve2422FLAWINNE
487.4260BEDORET VINCENT56BELVALGAU CLERMONT1:30:391:31:046:23 9.42106ve2422
488.4921FFOSTROY SABINE48BEL1:30:311:31:116:23 9.4124ai1423
489.240FONTAINE BERNARD53BELKURISTO1:30:231:31:126:23 9.41107ve2424BRUXELLES
490.4500AUDEBERT JOHAN41FRAS'CASSENES RUNN1:30:281:31:136:23 9.41112ve1423ECAUSSINNES
491.919FBORCEUX PAULINE29BELRCNAMUR1:30:481:31:136:23 9.4126dam419GRAPFONTAINE
492.4896EL HARCHI SAID46BEL1:30:271:31:146:23 9.41113ve1422
493.4125FDAVID ANNICK50BELRCNAMUR1:30:271:31:156:23 9.4016ai2421ANDENNE
494.286MOTTET CHRISTIAN51BELRCNAMUR1:30:271:31:166:23 9.40108ve2421SART-BERNARD
495.967FURBAIN GINETTE64FRASPIBO1:31:091:31:236:24 9.392ai3414BELLIGNIES
496.4874BROQUIN JIMMY45FRA1:30:331:31:236:24 9.39114ve1419WATIGNY
497.166HOUNJE FREDDY62BEL1:31:421:31:556:26 9.3343ve3407AUBEL
498.4408FVANESCOTE INGRID44BELJCHSH1:31:331:31:586:26 9.3325ai1408HAM-SUR-HEURE
499.162JONNIAUX PASCAL50BELJC HSH1:31:301:31:586:26 9.33109ve2408HAM-SUR-HEURE
500.4242VANDEGHINSTE ETIENNE60BELS'CASSENES RUNN1:31:191:32:046:27 9.3244ve3410ECAUSSINNES
DNF: abandon; DSQ: disqualifié; Vitesse en km/h
Bladzijde: [1] 2